createdAt,value
2019-04-27T00:02:00.115Z,13.00
2019-04-27T00:04:52.864Z,14.00
2019-04-27T00:07:24.136Z,13.63
2019-04-27T00:09:58.833Z,13.47
2019-04-27T00:12:29.605Z,13.10
2019-04-27T00:15:00.112Z,13.87
2019-04-27T00:17:49.595Z,13.83
2019-04-27T00:20:36.526Z,14.17
2019-04-27T00:23:11.392Z,14.97
2019-04-27T00:25:41.784Z,13.70
2019-04-27T00:28:12.897Z,13.97
2019-04-27T00:30:43.890Z,13.93
2019-04-27T00:33:14.257Z,14.67
2019-04-27T00:35:46.318Z,14.40
2019-04-27T00:38:24.382Z,14.83
2019-04-27T00:40:56.696Z,14.07
2019-04-27T00:43:27.221Z,13.10
2019-04-27T00:45:57.788Z,13.43
2019-04-27T00:48:28.097Z,13.57
2019-04-27T00:50:58.393Z,14.07
2019-04-27T00:53:28.749Z,14.07
2019-04-27T00:56:09.912Z,13.93
2019-04-27T00:58:53.767Z,13.70
2019-04-27T01:01:33.278Z,14.00
2019-04-27T01:04:05.593Z,15.13
2019-04-27T01:06:36.121Z,14.43
2019-04-27T01:09:08.288Z,14.13
2019-04-27T01:11:38.720Z,13.83
2019-04-27T01:14:09.233Z,14.63
2019-04-27T01:16:39.695Z,15.60
2019-04-27T01:19:10.492Z,14.27
2019-04-27T01:21:40.963Z,14.90
2019-04-27T01:24:11.710Z,15.37
2019-04-27T01:26:53.073Z,15.20
2019-04-27T01:29:24.993Z,14.30
2019-04-27T01:31:55.807Z,15.23
2019-04-27T01:34:26.265Z,14.53
2019-04-27T01:36:56.497Z,15.90
2019-04-27T01:39:28.814Z,15.63
2019-04-27T01:41:59.183Z,13.80
2019-04-27T01:44:29.743Z,14.67
2019-04-27T01:47:00.302Z,15.17
2019-04-27T01:49:30.646Z,14.97
2019-04-27T01:52:01.017Z,13.83
2019-04-27T01:54:31.412Z,14.10
2019-04-27T01:57:04.149Z,14.47
2019-04-27T01:59:33.928Z,14.73
2019-04-27T02:02:19.053Z,13.47
2019-04-27T02:05:08.969Z,15.20
2019-04-27T02:07:40.417Z,14.20
2019-04-27T02:10:11.645Z,14.73
2019-04-27T02:12:43.884Z,13.87
2019-04-27T02:15:14.497Z,14.57
2019-04-27T02:17:45.101Z,13.80
2019-04-27T02:20:16.024Z,14.57
2019-04-27T02:22:46.664Z,15.53
2019-04-27T02:25:18.965Z,13.77
2019-04-27T02:27:51.093Z,15.17
2019-04-27T02:30:30.641Z,15.27
2019-04-27T02:33:14.861Z,14.30
2019-04-27T02:35:45.421Z,14.97
2019-04-27T02:38:15.988Z,14.10
2019-04-27T02:40:51.733Z,13.57
2019-04-27T02:43:24.998Z,14.93
2019-04-27T02:45:55.565Z,14.57
2019-04-27T02:48:26.141Z,13.93
2019-04-27T02:51:01.403Z,14.17
2019-04-27T02:53:51.438Z,14.17
2019-04-27T02:56:21.972Z,14.77
2019-04-27T02:58:53.023Z,14.37
2019-04-27T03:01:25.333Z,14.17
2019-04-27T03:03:57.870Z,14.80
2019-04-27T03:06:30.128Z,13.90
2019-04-27T03:09:00.946Z,14.70
2019-04-27T03:11:32.029Z,14.57
2019-04-27T03:14:29.434Z,14.70
2019-04-27T03:17:00.293Z,14.83
2019-04-27T03:19:49.493Z,14.33
2019-04-27T03:22:25.091Z,13.83
2019-04-27T03:25:10.664Z,14.13
2019-04-27T03:27:50.235Z,14.00
2019-04-27T03:30:22.870Z,13.30
2019-04-27T03:32:56.970Z,14.10
2019-04-27T03:35:25.557Z,14.60
2019-04-27T03:37:56.287Z,14.50
2019-04-27T03:40:26.929Z,14.63
2019-04-27T03:42:59.635Z,13.87
2019-04-27T03:45:30.241Z,14.40
2019-04-27T03:48:00.772Z,14.10
2019-04-27T03:50:32.817Z,14.03
2019-04-27T03:53:04.824Z,14.47
2019-04-27T03:55:39.696Z,14.53
2019-04-27T03:58:13.920Z,14.27
2019-04-27T04:00:44.562Z,15.27
2019-04-27T04:03:14.912Z,14.17
2019-04-27T04:05:45.279Z,14.27
2019-04-27T04:08:15.641Z,14.17
2019-04-27T04:10:49.538Z,14.47
2019-04-27T04:13:36.640Z,14.33
2019-04-27T04:16:24.928Z,14.77
2019-04-27T04:18:56.687Z,15.00
2019-04-27T04:21:29.557Z,14.40
2019-04-27T04:24:00.820Z,14.17
2019-04-27T04:26:32.925Z,14.13
2019-04-27T04:29:03.986Z,14.30
2019-04-27T04:31:34.414Z,14.20
2019-04-27T04:34:05.171Z,14.30
2019-04-27T04:36:35.511Z,14.23
2019-04-27T04:39:11.954Z,14.70
2019-04-27T04:41:43.674Z,13.53
2019-04-27T04:44:15.518Z,13.63
2019-04-27T04:46:50.670Z,13.70
2019-04-27T04:49:20.932Z,13.07
2019-04-27T04:51:51.613Z,13.40
2019-04-27T04:54:24.587Z,13.30
2019-04-27T04:56:53.901Z,14.30
2019-04-27T04:59:24.509Z,13.27
2019-04-27T05:01:55.093Z,13.07
2019-04-27T05:04:25.505Z,13.10
2019-04-27T05:06:55.725Z,13.30
2019-04-27T05:09:26.245Z,13.60
2019-04-27T05:11:56.668Z,13.00
2019-04-27T05:14:28.914Z,12.50
2019-04-27T05:16:59.541Z,13.47
2019-04-27T05:19:30.880Z,11.70
2019-04-27T05:22:01.463Z,11.63
2019-04-27T05:24:31.864Z,12.40
2019-04-27T05:27:02.116Z,12.43
2019-04-27T05:29:32.432Z,12.83
2019-04-27T05:32:02.945Z,12.27
2019-04-27T05:34:33.237Z,11.60
2019-04-27T05:37:03.536Z,11.57
2019-04-27T05:39:33.933Z,11.63
2019-04-27T05:42:04.513Z,12.00
2019-04-27T05:45:00.304Z,11.43
2019-04-27T05:47:35.016Z,11.30
2019-04-27T05:50:09.061Z,11.90
2019-04-27T05:52:40.987Z,11.63
2019-04-27T05:55:11.681Z,11.60
2019-04-27T05:57:41.970Z,11.77
2019-04-27T06:00:15.337Z,11.90
2019-04-27T06:02:45.661Z,11.10
2019-04-27T06:05:16.385Z,11.40
2019-04-27T06:07:48.579Z,11.20
2019-04-27T06:10:19.810Z,10.13
2019-04-27T06:12:50.400Z,10.83
2019-04-27T06:15:20.997Z,10.97
2019-04-27T06:17:51.501Z,11.00
2019-04-27T06:20:21.821Z,10.63
2019-04-27T06:22:52.347Z,10.70
2019-04-27T06:25:22.694Z,11.40
2019-04-27T06:27:53.210Z,10.77
2019-04-27T06:30:23.679Z,10.60
2019-04-27T06:32:54.083Z,9.80
2019-04-27T06:35:24.718Z,10.63
2019-04-27T06:37:55.394Z,10.53
2019-04-27T06:40:25.904Z,9.97
2019-04-27T06:42:56.400Z,9.97
2019-04-27T06:45:28.494Z,10.13
2019-04-27T06:47:59.586Z,10.77
2019-04-27T06:50:30.120Z,10.23
2019-04-27T06:53:00.781Z,10.27
2019-04-27T06:55:31.160Z,9.97
2019-04-27T06:58:01.468Z,9.97
2019-04-27T07:00:32.125Z,9.70
2019-04-27T07:03:02.555Z,9.33
2019-04-27T07:05:33.044Z,10.10
2019-04-27T07:08:03.692Z,9.80
2019-04-27T07:10:34.201Z,9.83
2019-04-27T07:13:04.833Z,9.77
2019-04-27T07:15:35.681Z,9.80
2019-04-27T07:18:06.305Z,9.97
2019-04-27T07:20:38.749Z,9.07
2019-04-27T07:23:09.526Z,9.90
2019-04-27T07:25:40.006Z,9.83
2019-04-27T07:28:10.292Z,9.57
2019-04-27T07:30:40.710Z,9.60
2019-04-27T07:33:11.218Z,10.53
2019-04-27T07:35:41.824Z,9.53
2019-04-27T07:38:12.481Z,9.67
2019-04-27T07:40:42.785Z,9.57
2019-04-27T07:43:14.721Z,9.67
2019-04-27T07:45:44.954Z,9.30
2019-04-27T07:48:15.433Z,9.63
2019-04-27T07:50:45.795Z,8.97
2019-04-27T07:53:16.301Z,9.50
2019-04-27T07:55:46.785Z,9.60
2019-04-27T07:58:17.214Z,9.67
2019-04-27T08:00:49.199Z,10.07
2019-04-27T08:03:19.732Z,9.60
2019-04-27T08:05:50.166Z,9.87
2019-04-27T08:08:20.841Z,9.23
2019-04-27T08:10:51.172Z,9.53
2019-04-27T08:13:21.692Z,10.70
2019-04-27T08:15:52.181Z,10.13
2019-04-27T08:18:22.693Z,10.23
2019-04-27T08:20:53.204Z,10.70
2019-04-27T08:23:23.803Z,10.10
2019-04-27T08:25:54.477Z,8.80
2019-04-27T08:28:29.701Z,9.70
2019-04-27T08:31:13.630Z,9.37
2019-04-27T08:33:44.226Z,10.23
2019-04-27T08:36:14.836Z,9.60
2019-04-27T08:38:45.223Z,9.87
2019-04-27T08:41:15.724Z,9.67
2019-04-27T08:43:46.014Z,9.10
2019-04-27T08:46:16.413Z,9.27
2019-04-27T08:48:46.904Z,10.00
2019-04-27T08:51:17.414Z,9.77
2019-04-27T08:53:47.699Z,9.63
2019-04-27T08:56:19.396Z,9.70
2019-04-27T08:58:49.832Z,9.70
2019-04-27T09:01:20.759Z,9.90
2019-04-27T09:03:51.224Z,9.47
2019-04-27T09:06:21.750Z,9.03
2019-04-27T09:08:53.890Z,9.53
2019-04-27T09:11:44.451Z,9.83
2019-04-27T09:14:16.589Z,9.30
2019-04-27T09:16:59.645Z,9.57
2019-04-27T09:19:40.644Z,9.33
2019-04-27T09:22:15.976Z,9.33
2019-04-27T09:24:43.083Z,9.37
2019-04-27T09:27:13.374Z,8.87
2019-04-27T09:29:43.961Z,8.90
2019-04-27T09:32:14.329Z,9.67
2019-04-27T09:34:46.481Z,9.00
2019-04-27T09:37:17.193Z,9.00
2019-04-27T09:39:47.593Z,8.20
2019-04-27T09:42:18.079Z,8.63
2019-04-27T09:44:48.602Z,7.53
2019-04-27T09:47:19.245Z,8.90
2019-04-27T09:49:49.661Z,8.80
2019-04-27T09:52:26.225Z,8.57
2019-04-27T09:54:51.915Z,9.20
2019-04-27T09:57:22.429Z,8.57
2019-04-27T09:59:52.905Z,8.83
2019-04-27T10:02:23.205Z,8.83
2019-04-27T10:04:53.446Z,9.13
2019-04-27T10:07:23.689Z,9.13
2019-04-27T10:09:53.913Z,9.50
2019-04-27T10:12:26.087Z,8.63
2019-04-27T10:14:56.808Z,9.27
2019-04-27T10:17:27.101Z,9.40
2019-04-27T10:19:57.533Z,9.20
2019-04-27T10:22:40.474Z,9.63
2019-04-27T10:25:00.114Z,9.13
2019-04-27T10:27:30.620Z,9.00
2019-04-27T10:30:00.901Z,9.03
2019-04-27T10:32:31.401Z,8.03
2019-04-27T10:35:01.886Z,9.10
2019-04-27T10:37:32.529Z,8.73
2019-04-27T10:40:03.089Z,8.73
2019-04-27T10:42:33.689Z,8.70
2019-04-27T10:45:06.413Z,8.20
2019-04-27T10:47:37.141Z,9.00
2019-04-27T10:50:08.022Z,8.53
2019-04-27T10:52:38.477Z,9.00
2019-04-27T10:55:09.033Z,8.07
2019-04-27T10:57:39.437Z,8.80
2019-04-27T11:00:12.193Z,8.77
2019-04-27T11:02:42.576Z,9.43
2019-04-27T11:05:19.049Z,8.70
2019-04-27T11:07:49.906Z,8.90
2019-04-27T11:10:20.445Z,8.63
2019-04-27T11:12:50.789Z,8.93
2019-04-27T11:15:22.006Z,8.93
2019-04-27T11:17:53.037Z,8.13
2019-04-27T11:20:23.580Z,8.60
2019-04-27T11:23:06.574Z,7.43
2019-04-27T11:25:26.434Z,9.60
2019-04-27T11:27:57.983Z,11.00
2019-04-27T11:30:28.605Z,8.53
2019-04-27T11:32:59.338Z,9.03
2019-04-27T11:35:43.625Z,8.03
2019-04-27T11:38:13.956Z,7.97
2019-04-27T11:40:44.237Z,8.13
2019-04-27T11:43:16.092Z,8.60
2019-04-27T11:45:46.525Z,7.87
2019-04-27T11:48:17.032Z,8.47
2019-04-27T11:50:47.519Z,8.10
2019-04-27T11:53:22.631Z,14.97
2019-04-27T11:55:49.941Z,10.73
2019-04-27T11:58:20.360Z,8.10
2019-04-27T12:00:50.692Z,11.00
2019-04-27T12:03:21.147Z,8.37
2019-04-27T12:05:51.547Z,8.70
2019-04-27T12:08:22.109Z,8.53
2019-04-27T12:10:52.513Z,9.27
2019-04-27T12:13:23.017Z,8.30
2019-04-27T12:15:53.498Z,10.70
2019-04-27T12:18:24.011Z,9.83
2019-04-27T12:20:55.820Z,11.10
2019-04-27T12:23:33.694Z,10.47
2019-04-27T12:25:58.718Z,9.43
2019-04-27T12:28:33.585Z,8.27
2019-04-27T12:31:08.772Z,8.70
2019-04-27T12:33:37.993Z,9.00
2019-04-27T12:36:08.565Z,8.47
2019-04-27T12:38:39.199Z,8.50
2019-04-27T12:41:09.641Z,8.83
2019-04-27T12:43:40.198Z,8.07
2019-04-27T12:46:10.729Z,8.37
2019-04-27T12:48:41.010Z,8.87
2019-04-27T12:51:11.334Z,7.90
2019-04-27T12:53:50.658Z,8.70
2019-04-27T12:56:20.244Z,9.30
2019-04-27T12:58:58.313Z,8.37
2019-04-27T13:01:29.917Z,8.30
2019-04-27T13:04:00.210Z,8.03
2019-04-27T13:06:30.560Z,8.20
2019-04-27T13:09:01.029Z,8.90
2019-04-27T13:11:31.709Z,7.93
2019-04-27T13:14:02.017Z,8.00
2019-04-27T13:16:32.409Z,7.87
2019-04-27T13:19:02.741Z,8.57
2019-04-27T13:21:33.045Z,7.80
2019-04-27T13:24:06.315Z,8.13
2019-04-27T13:26:36.218Z,8.20
2019-04-27T13:29:07.832Z,8.27
2019-04-27T13:31:38.107Z,7.67
2019-04-27T13:34:08.400Z,7.83
2019-04-27T13:36:38.829Z,7.77
2019-04-27T13:39:09.249Z,7.60
2019-04-27T13:41:39.677Z,7.47
2019-04-27T13:44:10.133Z,8.00
2019-04-27T13:46:58.265Z,7.30
2019-04-27T13:49:30.493Z,7.80
2019-04-27T13:52:02.465Z,7.90
2019-04-27T13:54:32.673Z,8.07
2019-04-27T13:57:03.169Z,7.50
2019-04-27T13:59:33.321Z,7.60
2019-04-27T14:02:04.656Z,6.70
2019-04-27T14:04:34.969Z,7.83
2019-04-27T14:07:05.489Z,7.97
2019-04-27T14:09:35.784Z,7.57
2019-04-27T14:12:21.214Z,7.73
2019-04-27T14:14:51.781Z,7.10
2019-04-27T14:17:22.301Z,8.03
2019-04-27T14:19:52.854Z,8.00
2019-04-27T14:22:23.283Z,7.40
2019-04-27T14:24:53.960Z,7.23
2019-04-27T14:27:26.056Z,7.70
2019-04-27T14:29:57.635Z,7.40
2019-04-27T14:32:28.755Z,7.80
2019-04-27T14:34:59.317Z,8.00
2019-04-27T14:37:29.781Z,8.87
2019-04-27T14:40:00.391Z,8.10
2019-04-27T14:42:30.781Z,7.33
2019-04-27T14:45:01.361Z,8.53
2019-04-27T14:47:31.875Z,8.10
2019-04-27T14:50:02.429Z,7.50
2019-04-27T14:52:33.045Z,7.20
2019-04-27T14:55:04.290Z,7.37
2019-04-27T14:57:34.712Z,6.77
2019-04-27T15:00:06.492Z,7.63
2019-04-27T15:02:39.122Z,8.23
2019-04-27T15:05:09.366Z,7.50
2019-04-27T15:07:39.825Z,8.33
2019-04-27T15:10:10.277Z,7.53
2019-04-27T15:12:40.789Z,8.00
2019-04-27T15:15:11.173Z,7.90
2019-04-27T15:17:41.641Z,8.37
2019-04-27T15:20:14.204Z,7.70
2019-04-27T15:22:46.134Z,8.23
2019-04-27T15:25:16.512Z,8.13
2019-04-27T15:27:50.093Z,8.17
2019-04-27T15:30:35.146Z,8.20
2019-04-27T15:33:19.485Z,7.83
2019-04-27T15:36:00.604Z,9.67
2019-04-27T15:38:32.689Z,12.60
2019-04-27T15:41:10.744Z,8.63
2019-04-27T15:43:42.968Z,8.87
2019-04-27T15:46:13.761Z,8.30
2019-04-27T15:48:44.365Z,9.10
2019-04-27T15:51:18.376Z,8.93
2019-04-27T15:53:50.836Z,9.47
2019-04-27T15:56:21.610Z,9.57
2019-04-27T15:58:51.144Z,8.57
2019-04-27T16:01:21.645Z,8.73
2019-04-27T16:03:52.200Z,9.17
2019-04-27T16:06:22.763Z,8.70
2019-04-27T16:08:53.391Z,9.93
2019-04-27T16:11:24.004Z,8.93
2019-04-27T16:13:54.421Z,10.40
2019-04-27T16:16:29.087Z,12.83
2019-04-27T16:18:57.881Z,9.23
2019-04-27T16:21:31.556Z,9.10
2019-04-27T16:24:01.421Z,9.07
2019-04-27T16:26:31.573Z,8.97
2019-04-27T16:29:02.039Z,9.20
2019-04-27T16:31:33.802Z,8.73
2019-04-27T16:34:05.041Z,9.20
2019-04-27T16:36:37.801Z,9.27
2019-04-27T16:39:09.957Z,9.17
2019-04-27T16:41:42.015Z,9.73
2019-04-27T16:44:12.484Z,9.00
2019-04-27T16:46:43.274Z,9.27
2019-04-27T16:49:15.104Z,8.80
2019-04-27T16:51:45.546Z,9.00
2019-04-27T16:54:17.571Z,9.20
2019-04-27T16:56:52.732Z,8.90
2019-04-27T16:59:39.731Z,9.10
2019-04-27T17:01:52.049Z,8.77
2019-04-27T17:04:22.516Z,8.87
2019-04-27T17:06:52.925Z,9.03
2019-04-27T17:09:23.298Z,9.00
2019-04-27T17:11:53.693Z,9.70
2019-04-27T17:14:29.179Z,8.90
2019-04-27T17:17:03.625Z,9.07
2019-04-27T17:19:35.812Z,8.93
2019-04-27T17:22:05.881Z,8.90
2019-04-27T17:24:43.821Z,8.83
2019-04-27T17:27:11.666Z,8.27
2019-04-27T17:29:41.401Z,8.73
2019-04-27T17:32:13.698Z,8.53
2019-04-27T17:34:44.113Z,8.83
2019-04-27T17:37:14.321Z,8.67
2019-04-27T17:39:44.748Z,9.37
2019-04-27T17:42:15.185Z,8.87
2019-04-27T17:44:45.716Z,8.63
2019-04-27T17:47:20.045Z,8.90
2019-04-27T17:49:48.811Z,9.07
2019-04-27T17:52:19.225Z,9.33
2019-04-27T17:54:49.721Z,9.10
2019-04-27T17:57:22.263Z,8.07
2019-04-27T17:59:59.046Z,9.60
2019-04-27T18:02:24.354Z,10.53
2019-04-27T18:04:54.865Z,9.73
2019-04-27T18:07:25.453Z,9.40
2019-04-27T18:09:55.901Z,9.00
2019-04-27T18:12:28.196Z,9.40
2019-04-27T18:14:58.362Z,9.83
2019-04-27T18:17:29.885Z,9.40
2019-04-27T18:20:04.918Z,8.97
2019-04-27T18:22:39.611Z,9.43
2019-04-27T18:25:09.977Z,9.30
2019-04-27T18:27:44.679Z,8.93
2019-04-27T18:30:18.910Z,9.90
2019-04-27T18:32:49.658Z,8.90
2019-04-27T18:35:26.510Z,9.20
2019-04-27T18:37:53.508Z,8.57
2019-04-27T18:40:31.899Z,8.77
2019-04-27T18:42:56.553Z,9.10
2019-04-27T18:45:28.395Z,8.93
2019-04-27T18:48:00.288Z,9.20
2019-04-27T18:50:32.753Z,8.70
2019-04-27T18:53:10.821Z,8.87
2019-04-27T18:55:41.105Z,9.37
2019-04-27T18:58:11.517Z,8.50
2019-04-27T19:00:41.996Z,9.33
2019-04-27T19:03:12.573Z,9.20
2019-04-27T19:05:43.133Z,8.97
2019-04-27T19:08:13.440Z,8.17
2019-04-27T19:10:44.132Z,8.93
2019-04-27T19:13:14.629Z,9.03
2019-04-27T19:15:45.113Z,19.73
2019-04-27T19:18:15.545Z,28.33
2019-04-27T19:20:48.084Z,13.97
2019-04-27T19:23:18.273Z,8.33
2019-04-27T19:25:59.626Z,8.97
2019-04-27T19:28:48.489Z,8.40
2019-04-27T19:31:29.197Z,9.13
2019-04-27T19:33:59.728Z,9.43
2019-04-27T19:36:30.378Z,8.47
2019-04-27T19:39:00.918Z,8.43
2019-04-27T19:41:31.205Z,9.27
2019-04-27T19:44:01.870Z,13.83
2019-04-27T19:46:32.373Z,9.80
2019-04-27T19:49:03.009Z,9.73
2019-04-27T19:51:33.568Z,22.40
2019-04-27T19:54:04.145Z,12.27
2019-04-27T19:56:35.717Z,9.40
2019-04-27T19:59:08.951Z,8.30
2019-04-27T20:01:41.218Z,9.53
2019-04-27T20:04:13.508Z,9.50
2019-04-27T20:06:43.799Z,9.47
2019-04-27T20:09:28.137Z,9.70
2019-04-27T20:12:00.660Z,10.23
2019-04-27T20:14:32.401Z,9.07
2019-04-27T20:17:03.241Z,9.43
2019-04-27T20:19:33.545Z,9.07
2019-04-27T20:22:04.028Z,8.87
2019-04-27T20:24:34.277Z,9.60
2019-04-27T20:27:04.832Z,10.23
2019-04-27T20:29:35.061Z,9.93
2019-04-27T20:32:05.419Z,9.67
2019-04-27T20:34:35.737Z,9.47
2019-04-27T20:37:06.348Z,9.20
2019-04-27T20:39:36.716Z,9.43
2019-04-27T20:42:07.205Z,10.20
2019-04-27T20:44:37.761Z,10.33
2019-04-27T20:47:07.993Z,10.20
2019-04-27T20:49:38.257Z,10.40
2019-04-27T20:52:13.007Z,9.77
2019-04-27T20:54:43.376Z,11.27
2019-04-27T20:57:13.873Z,9.50
2019-04-27T20:59:44.373Z,9.40
2019-04-27T21:02:32.194Z,11.10
2019-04-27T21:05:21.063Z,9.80
2019-04-27T21:07:53.323Z,10.23
2019-04-27T21:10:23.900Z,9.10
2019-04-27T21:12:54.304Z,9.57
2019-04-27T21:15:24.685Z,9.83
2019-04-27T21:17:54.977Z,9.93
2019-04-27T21:20:25.321Z,9.10
2019-04-27T21:22:55.781Z,9.23
2019-04-27T21:25:26.424Z,8.87
2019-04-27T21:27:56.709Z,9.03
2019-04-27T21:30:27.449Z,9.60
2019-04-27T21:32:57.990Z,10.10
2019-04-27T21:35:28.290Z,9.10
2019-04-27T21:37:58.784Z,10.07
2019-04-27T21:40:30.692Z,10.10
2019-04-27T21:43:01.693Z,8.97
2019-04-27T21:45:32.192Z,9.60
2019-04-27T21:48:02.698Z,9.23
2019-04-27T21:50:33.117Z,9.53
2019-04-27T21:53:11.220Z,10.07
2019-04-27T21:55:42.228Z,9.30
2019-04-27T21:58:12.878Z,10.70
2019-04-27T22:00:45.012Z,10.27
2019-04-27T22:03:17.224Z,9.43
2019-04-27T22:05:47.909Z,9.03
2019-04-27T22:08:18.409Z,9.40
2019-04-27T22:10:48.620Z,9.77
2019-04-27T22:13:22.204Z,9.83
2019-04-27T22:15:51.711Z,9.63
2019-04-27T22:18:22.064Z,9.97
2019-04-27T22:20:52.372Z,10.03
2019-04-27T22:23:41.823Z,10.33
2019-04-27T22:26:12.151Z,9.57
2019-04-27T22:28:47.223Z,9.83
2019-04-27T22:31:14.897Z,9.50
2019-04-27T22:33:45.333Z,9.47
2019-04-27T22:36:16.048Z,9.80
2019-04-27T22:38:46.549Z,10.10
2019-04-27T22:41:18.481Z,9.90
2019-04-27T22:44:06.951Z,9.57
2019-04-27T22:46:41.637Z,8.83
2019-04-27T22:49:12.139Z,9.67
2019-04-27T22:51:43.109Z,9.67
2019-04-27T22:54:13.616Z,9.67
2019-04-27T22:56:45.668Z,9.93
2019-04-27T22:59:26.763Z,9.63
2019-04-27T23:01:58.789Z,9.67
2019-04-27T23:04:36.828Z,10.03
2019-04-27T23:07:07.053Z,9.67
2019-04-27T23:09:37.609Z,10.57
2019-04-27T23:12:08.412Z,9.33
2019-04-27T23:14:39.092Z,10.17
2019-04-27T23:17:11.558Z,9.50
2019-04-27T23:19:42.814Z,9.70
2019-04-27T23:22:13.064Z,10.30
2019-04-27T23:24:43.487Z,10.30
2019-04-27T23:27:15.345Z,10.10
2019-04-27T23:29:45.701Z,10.23
2019-04-27T23:32:21.447Z,10.30
2019-04-27T23:34:52.357Z,9.63
2019-04-27T23:37:22.589Z,9.97
2019-04-27T23:39:52.889Z,10.67
2019-04-27T23:42:23.385Z,9.97
2019-04-27T23:44:53.825Z,10.73
2019-04-27T23:47:24.677Z,10.03
2019-04-27T23:49:55.116Z,10.60
2019-04-27T23:52:45.353Z,11.00
2019-04-27T23:55:16.142Z,9.87
2019-04-27T23:57:46.625Z,9.97
